Time;durP1;ratioP1;P1;durP2;ratioP2;P2;SDS_P1;SDS_P2;PMS_P1;PMS_P2;Temp;Humidity;BMP_temperature;BMP_pressure;BME280_temperature;BME280_humidity;BME280_pressure;Samples;Min_cycle;Max_cycle;Signal;HPM_P1;HPM_P2
2024/01/26 00:01:42;;;;;;;0.10;0.03;;;3.40;99.90;;;;;;20896811;28;20105;-45
2024/01/26 00:11:44;;;;;;;0.17;0.00;;;3.40;99.90;;;;;;20897195;28;20043;-44
2024/01/26 00:21:46;;;;;;;0.55;0.00;;;3.60;99.90;;;;;;20897280;28;20040;-46
2024/01/26 00:31:48;;;;;;;0.10;0.00;;;3.60;99.90;;;;;;20913935;28;20481;-44
2024/01/26 00:41:50;;;;;;;0.10;0.00;;;3.30;99.90;;;;;;20912288;28;20129;-47
2024/01/26 00:51:52;;;;;;;0.20;0.00;;;3.30;99.90;;;;;;20913574;28;20039;-45
2024/01/26 01:01:54;;;;;;;0.00;0.00;;;3.30;99.90;;;;;;20912974;28;20986;-43
2024/01/26 01:11:59;;;;;;;0.17;0.00;;;3.70;99.90;;;;;;20910709;28;20044;-45
2024/01/26 01:22:01;;;;;;;0.00;0.00;;;3.90;99.90;;;;;;20910890;28;20040;-47
2024/01/26 01:32:03;;;;;;;0.00;0.00;;;3.80;99.90;;;;;;20909942;28;20078;-43
2024/01/26 01:42:13;;;;;;;0.00;0.00;;;4.60;99.90;;;;;;20874243;28;20094;-44
2024/01/26 01:52:17;;;;;;;0.00;0.00;;;5.10;99.90;;;;;;20878723;28;20089;-43
2024/01/26 02:02:25;;;;;;;0.00;0.00;;;5.50;99.40;;;;;;20882684;28;20580;-45
2024/01/26 02:12:28;;;;;;;0.00;0.00;;;5.50;98.70;;;;;;20882403;28;20032;-44
2024/01/26 02:22:30;;;;;;;0.10;0.00;;;5.30;98.70;;;;;;20883347;28;20097;-46
2024/01/26 02:32:35;;;;;;;0.00;0.00;;;5.00;99.00;;;;;;20883740;28;20121;-47
2024/01/26 02:42:40;;;;;;;0.00;0.00;;;4.90;99.00;;;;;;20916487;28;20133;-44
2024/01/26 02:52:42;;;;;;;0.00;0.00;;;5.10;98.70;;;;;;20921544;28;21502;-44
2024/01/26 03:02:44;;;;;;;0.00;0.00;;;4.60;99.00;;;;;;20920166;28;20032;-47
2024/01/26 03:12:47;;;;;;;0.00;0.00;;;4.20;99.90;;;;;;20918979;28;20060;-47
2024/01/26 03:22:49;;;;;;;0.00;0.00;;;3.70;99.90;;;;;;20919697;28;20040;-44
2024/01/26 03:32:51;;;;;;;0.05;0.00;;;3.50;99.90;;;;;;20899223;28;20072;-45
2024/01/26 03:42:53;;;;;;;0.00;0.00;;;3.10;99.90;;;;;;20878006;28;20064;-43
2024/01/26 03:52:55;;;;;;;0.00;0.00;;;3.00;99.90;;;;;;20872778;28;20497;-47
2024/01/26 04:02:57;;;;;;;0.00;0.00;;;3.20;99.90;;;;;;20873655;28;20048;-44
2024/01/26 04:12:59;;;;;;;0.00;0.00;;;3.50;99.90;;;;;;20870226;28;20097;-45
2024/01/26 04:23:00;;;;;;;0.00;0.00;;;3.60;99.90;;;;;;20871791;28;20400;-43
2024/01/26 04:33:02;;;;;;;0.00;0.00;;;3.40;99.90;;;;;;20870688;28;20052;-44
2024/01/26 04:43:08;;;;;;;0.00;0.00;;;3.30;99.90;;;;;;20908438;28;20141;-43
2024/01/26 04:53:10;;;;;;;0.15;0.00;;;3.20;99.90;;;;;;20909488;28;20100;-43
2024/01/26 05:03:12;;;;;;;0.00;0.00;;;3.70;99.90;;;;;;20912105;28;20077;-44
2024/01/26 05:13:16;;;;;;;0.00;0.00;;;4.00;99.60;;;;;;20907110;28;20048;-45
2024/01/26 05:23:18;;;;;;;0.00;0.00;;;4.40;99.10;;;;;;20910726;28;20036;-43
2024/01/26 05:33:20;;;;;;;0.00;0.00;;;4.60;98.10;;;;;;20909681;28;20040;-42
2024/01/26 05:43:22;;;;;;;0.00;0.00;;;4.70;97.10;;;;;;20909724;28;20040;-46
2024/01/26 05:53:26;;;;;;;0.25;0.00;;;4.60;97.80;;;;;;20896949;28;20449;-45
2024/01/26 06:03:28;;;;;;;0.15;0.00;;;4.10;99.10;;;;;;20910381;28;21131;-43
2024/01/26 06:13:30;;;;;;;0.20;0.00;;;3.70;99.90;;;;;;20908443;28;20055;-45
2024/01/26 06:23:31;;;;;;;1.58;0.00;;;3.90;99.90;;;;;;20907280;28;20040;-45
2024/01/26 06:33:33;;;;;;;0.10;0.00;;;4.70;99.50;;;;;;20907833;28;20101;-45
2024/01/26 06:43:35;;;;;;;0.20;0.10;;;5.00;98.70;;;;;;20881167;28;20048;-46
2024/01/26 06:53:37;;;;;;;0.00;0.00;;;5.20;98.40;;;;;;20878860;28;20501;-43
2024/01/26 07:03:41;;;;;;;0.03;0.00;;;5.50;97.90;;;;;;20877771;28;20089;-44
2024/01/26 07:13:44;;;;;;;0.00;0.00;;;5.60;97.70;;;;;;20855783;28;20040;-47
2024/01/26 07:23:46;;;;;;;0.10;0.00;;;5.70;96.90;;;;;;20875832;28;20118;-44
2024/01/26 07:33:47;;;;;;;0.00;0.00;;;6.10;96.30;;;;;;20874396;28;20114;-56
2024/01/26 07:43:49;;;;;;;0.00;0.00;;;6.40;95.50;;;;;;20912801;28;20105;-44
2024/01/26 07:53:51;;;;;;;0.13;0.00;;;6.60;95.30;;;;;;20913193;28;20081;-45
2024/01/26 08:03:53;;;;;;;0.00;0.00;;;7.00;94.90;;;;;;20915017;28;21573;-44
2024/01/26 08:13:55;;;;;;;0.82;0.00;;;7.40;94.40;;;;;;20913006;28;20089;-45
2024/01/26 08:23:56;;;;;;;0.00;0.00;;;7.80;93.70;;;;;;20913863;28;20998;-42
2024/01/26 08:33:58;;;;;;;0.00;0.00;;;8.20;92.60;;;;;;20892013;28;20044;-48
2024/01/26 08:44:00;;;;;;;0.00;0.00;;;8.60;92.00;;;;;;20872001;28;20926;-46
2024/01/26 08:54:05;;;;;;;0.00;0.00;;;9.10;91.40;;;;;;20870705;28;21238;-43
2024/01/26 09:04:07;;;;;;;0.00;0.00;;;9.50;91.00;;;;;;20868021;28;20082;-45
2024/01/26 09:14:09;;;;;;;0.20;0.17;;;9.80;90.10;;;;;;20868048;28;20036;-45
2024/01/26 09:24:12;;;;;;;0.10;0.00;;;10.10;90.20;;;;;;20866158;28;20036;-44
2024/01/26 09:34:13;;;;;;;0.15;0.00;;;10.30;89.60;;;;;;20868933;28;20048;-43
2024/01/26 09:44:15;;;;;;;0.00;0.00;;;10.60;87.70;;;;;;20910572;28;20043;-44
2024/01/26 09:54:19;;;;;;;0.00;0.00;;;10.90;86.20;;;;;;20905672;28;20104;-43
2024/01/26 10:04:22;;;;;;;0.00;0.00;;;11.20;85.20;;;;;;20907098;28;20055;-46
2024/01/26 10:14:24;;;;;;;0.10;0.00;;;11.70;84.00;;;;;;20916291;28;20125;-44
2024/01/26 10:24:26;;;;;;;0.10;0.00;;;12.10;84.50;;;;;;20925787;28;20066;-44
2024/01/26 10:34:33;;;;;;;0.25;0.20;;;12.30;81.40;;;;;;20921875;28;20098;-47
2024/01/26 10:44:38;;;;;;;0.30;0.10;;;12.60;85.00;;;;;;20921188;28;20382;-45
2024/01/26 10:54:40;;;;;;;1.00;0.38;;;13.20;85.10;;;;;;20918165;28;20115;-44
2024/01/26 11:04:43;;;;;;;1.05;0.73;;;13.20;85.10;;;;;;20919761;28;20032;-44
2024/01/26 11:15:18;;;;;;;0.88;0.30;;;13.10;85.10;;;;;;20915701;28;20037;-51
2024/01/26 11:25:24;;;;;;;0.20;0.17;;;13.00;85.70;;;;;;20917961;28;20032;-54
2024/01/26 11:35:25;;;;;;;0.73;0.30;;;13.90;83.70;;;;;;20908097;28;21157;-45
2024/01/26 11:45:41;;;;;;;2.42;1.48;;;13.90;84.10;;;;;;20873366;28;20048;-44
2024/01/26 11:55:45;;;;;;;0.40;0.25;;;13.40;84.60;;;;;;20870985;28;20040;-53
2024/01/26 12:05:47;;;;;;;1.08;0.70;;;12.60;84.70;;;;;;20869223;28;20056;-45
2024/01/26 12:15:50;;;;;;;2.35;1.23;;;12.20;85.80;;;;;;20873175;28;21233;-49
2024/01/26 12:25:52;;;;;;;1.50;0.70;;;11.70;88.00;;;;;;20870804;28;21168;-49
2024/01/26 12:36:03;;;;;;;6.85;3.60;;;11.70;88.60;;;;;;20868963;28;20040;-54
2024/01/26 12:46:07;;;;;;;7.63;4.30;;;11.90;88.60;;;;;;20841479;28;20040;-51
2024/01/26 12:56:09;;;;;;;4.55;2.58;;;11.80;90.00;;;;;;20870484;28;20032;-51
2024/01/26 13:06:11;;;;;;;6.50;4.03;;;11.70;90.10;;;;;;20848907;28;20185;-46
2024/01/26 13:16:14;;;;;;;7.20;3.30;;;11.90;90.30;;;;;;20861034;28;20127;-48
2024/01/26 13:26:17;;;;;;;6.75;3.70;;;11.60;88.50;;;;;;20867289;28;20197;-43
2024/01/26 13:36:18;;;;;;;3.88;2.47;;;11.30;91.10;;;;;;20870779;28;20056;-46
2024/01/26 13:46:20;;;;;;;5.53;3.05;;;10.70;90.90;;;;;;20910632;28;20036;-43
2024/01/26 13:56:22;;;;;;;7.63;4.18;;;9.80;92.10;;;;;;20913615;28;20039;-62
2024/01/26 14:06:24;;;;;;;7.00;4.05;;;9.20;92.80;;;;;;20893557;28;20044;-55
2024/01/26 14:16:27;;;;;;;5.53;3.20;;;9.20;93.50;;;;;;20917057;28;20507;-58
2024/01/26 14:26:30;;;;;;;15.85;9.40;;;9.10;93.70;;;;;;20915246;28;20032;-57
2024/01/26 14:36:33;;;;;;;8.23;4.03;;;9.00;95.90;;;;;;20911659;28;20464;-60
2024/01/26 14:46:35;;;;;;;4.38;2.85;;;8.70;95.20;;;;;;20884047;28;20105;-60
2024/01/26 14:56:37;;;;;;;10.63;5.32;;;9.00;94.70;;;;;;20891426;28;20044;-58
2024/01/26 15:06:39;;;;;;;11.23;5.75;;;9.00;95.60;;;;;;20887911;28;20036;-53
2024/01/26 15:16:41;;;;;;;4.97;1.58;;;8.50;97.30;;;;;;20907927;28;20036;-57
2024/01/26 15:26:43;;;;;;;0.20;0.10;;;8.10;96.80;;;;;;20910497;28;20036;-56
2024/01/26 15:36:45;;;;;;;0.60;0.50;;;7.60;96.10;;;;;;20910335;28;20098;-53
2024/01/26 15:46:49;;;;;;;2.10;1.40;;;7.20;95.40;;;;;;20900874;28;20124;-62
2024/01/26 15:56:51;;;;;;;0.85;0.52;;;6.90;96.20;;;;;;20899976;28;20040;-61
2024/01/26 16:06:53;;;;;;;0.93;0.20;;;6.40;96.40;;;;;;20907098;28;20507;-49
2024/01/26 16:16:55;;;;;;;1.25;0.20;;;5.80;96.80;;;;;;20883543;28;20036;-46
2024/01/26 16:26:57;;;;;;;0.80;0.22;;;5.30;97.70;;;;;;20891568;28;20093;-47
2024/01/26 16:37:07;;;;;;;2.10;0.53;;;4.90;98.40;;;;;;21187491;27;20949;-61
2024/01/26 16:47:08;;;;;;;0.20;0.15;;;4.80;98.80;;;;;;21091292;27;21144;-54
2024/01/26 16:57:10;;;;;;;0.40;0.20;;;4.50;99.00;;;;;;21093715;27;20433;-60
2024/01/26 17:07:14;;;;;;;0.52;0.20;;;4.70;98.80;;;;;;21077021;27;20120;-61
2024/01/26 17:17:21;;;;;;;0.30;0.10;;;4.50;99.00;;;;;;21076542;27;20028;-51
2024/01/26 17:27:23;;;;;;;0.32;0.20;;;4.50;99.00;;;;;;21096644;27;20050;-48
2024/01/26 17:37:26;;;;;;;0.40;0.20;;;4.30;99.40;;;;;;21102073;27;20076;-46
2024/01/26 17:47:28;;;;;;;0.93;0.30;;;4.20;99.80;;;;;;21051861;27;20035;-49
2024/01/26 17:57:31;;;;;;;0.50;0.20;;;4.00;99.90;;;;;;21044892;27;20043;-48
2024/01/26 18:07:33;;;;;;;0.60;0.20;;;4.20;99.80;;;;;;21045580;27;20039;-46
2024/01/26 18:17:35;;;;;;;0.50;0.30;;;4.10;99.90;;;;;;21042618;27;20120;-48
2024/01/26 18:27:37;;;;;;;0.40;0.20;;;3.90;99.90;;;;;;21041623;27;20055;-48
2024/01/26 18:37:39;;;;;;;0.10;0.10;;;4.00;99.90;;;;;;21040265;27;20114;-46
2024/01/26 18:47:41;;;;;;;0.38;0.20;;;4.20;99.90;;;;;;21042001;27;20039;-46
2024/01/26 18:57:42;;;;;;;0.15;0.10;;;4.00;99.90;;;;;;21022565;27;20115;-48
2024/01/26 19:07:44;;;;;;;0.03;0.00;;;4.00;99.90;;;;;;21036606;27;20084;-46
2024/01/26 19:17:46;;;;;;;0.50;0.10;;;3.90;99.90;;;;;;21003678;27;20039;-47
2024/01/26 19:27:48;;;;;;;0.25;0.10;;;3.80;99.90;;;;;;21038251;27;20100;-50
2024/01/26 19:37:51;;;;;;;0.28;0.10;;;3.90;99.90;;;;;;21036577;27;20508;-49
2024/01/26 19:47:53;;;;;;;0.20;0.10;;;3.70;99.90;;;;;;21039263;27;20951;-48
2024/01/26 19:57:55;;;;;;;0.25;0.10;;;3.50;99.90;;;;;;21037289;27;20039;-47
2024/01/26 20:07:57;;;;;;;0.40;0.20;;;3.50;99.90;;;;;;21012787;27;20116;-47
2024/01/26 20:17:59;;;;;;;0.17;0.10;;;3.50;99.90;;;;;;21031698;27;20120;-48
2024/01/26 20:28:01;;;;;;;1.45;0.10;;;3.50;99.90;;;;;;21030711;27;20139;-48
2024/01/26 20:38:03;;;;;;;0.40;0.17;;;3.70;99.90;;;;;;21012686;28;20039;-49
2024/01/26 20:48:08;;;;;;;0.22;0.10;;;4.40;99.90;;;;;;20987727;28;20088;-49
2024/01/26 20:58:10;;;;;;;0.10;0.10;;;4.30;99.90;;;;;;21027957;28;20043;-47
2024/01/26 21:08:19;;;;;;;0.13;0.10;;;4.30;99.90;;;;;;21028257;28;20036;-48
2024/01/26 21:18:21;;;;;;;0.20;0.10;;;5.00;99.00;;;;;;21036326;27;20040;-48
2024/01/26 21:28:24;;;;;;;0.47;0.10;;;6.30;96.40;;;;;;21046692;27;20059;-49
2024/01/26 21:38:27;;;;;;;0.10;0.10;;;6.80;95.30;;;;;;21046735;27;20592;-48
2024/01/26 21:48:29;;;;;;;1.65;0.10;;;7.20;94.90;;;;;;21043285;27;20035;-46
2024/01/26 21:58:31;;;;;;;0.20;0.10;;;7.30;95.00;;;;;;21021348;27;20442;-48
2024/01/26 22:08:34;;;;;;;0.30;0.13;;;7.00;95.50;;;;;;21042212;27;20104;-50
2024/01/26 22:18:39;;;;;;;0.10;0.00;;;7.20;96.00;;;;;;21038252;27;20036;-48
2024/01/26 22:28:40;;;;;;;0.40;0.13;;;7.40;96.10;;;;;;21017380;27;20046;-48
2024/01/26 22:38:43;;;;;;;0.47;0.10;;;7.30;96.60;;;;;;21038681;27;20517;-52
2024/01/26 22:48:47;;;;;;;0.10;0.10;;;7.10;97.40;;;;;;21039588;27;20130;-50
2024/01/26 22:58:49;;;;;;;0.10;0.00;;;7.10;97.60;;;;;;21035011;27;20060;-52
2024/01/26 23:08:52;;;;;;;0.30;0.10;;;7.20;97.10;;;;;;21023224;27;20047;-51
2024/01/26 23:18:54;;;;;;;0.10;0.00;;;7.20;96.80;;;;;;21018495;27;20100;-47
2024/01/26 23:28:56;;;;;;;1.23;0.00;;;7.30;96.10;;;;;;21033022;27;20051;-47
2024/01/26 23:38:59;;;;;;;0.08;0.00;;;7.20;95.60;;;;;;21014290;27;20039;-47
2024/01/26 23:49:02;;;;;;;0.00;0.00;;;7.10;95.20;;;;;;21035178;27;20794;-49
2024/01/26 23:59:04;;;;;;;0.00;0.00;;;7.10;94.80;;;;;;21030557;27;20031;-48
